»·PEaware :: N1128 KSNA-KCRQ

N1128 :: KSNA-KCRQ

FLIGHT INFORMATION

Flight Status: Arrived
Operator: Privately registered:
United States
More flights under this callsign
Pilot: Siddique N. (20419)
Aircraft: ECLIPSE 500
(EA50)
More flights by this aircraft type
Origin: KSNA John Wayne-Orange Co
United States
Destination: KCRQ McClellan-Palomar
United States
More flights between these airports :: More routes between these airports
Route: V25 PACIF V208 OCN
File this flight plan on PilotEdge
Remarks:
Altitude:
(Current/Filed)
7,000ft
Speed:
(Current/Filed)
115kts
Departed: 04-Dec-18 11:19 AM
Arrived: 04-Dec-18 11:47 AM
Distance/Time
Traveled:
44nm/0:27
Distance/Time
To Go:
Arrived

Flight Plot

Page will automatically refresh every two minutes.


Map Options




Map Legend


Flown Route
Filed Route
Departure Airport
Arrival Airport
Navaid (VOR, NDB)
Fix

Horizontal Profiles

Position Reports

Time Latitude Longitude Heading Altitude Ground
Speed
04-Dec-18 10:58 33.668099 -117.871011 221 59ft 0kts
04-Dec-18 10:59 33.668099 -117.871011 221 59ft 0kts
04-Dec-18 11:00 33.668099 -117.871011 221 59ft 0kts
04-Dec-18 11:01 33.668099 -117.871011 221 59ft 0kts
04-Dec-18 11:02 33.668099 -117.871011 221 59ft 0kts
04-Dec-18 11:03 33.668099 -117.871011 221 59ft 0kts
04-Dec-18 11:04 33.668099 -117.871011 221 59ft 0kts
04-Dec-18 11:05 33.668099 -117.871011 221 59ft 0kts
04-Dec-18 11:06 33.668099 -117.871011 221 59ft 0kts
04-Dec-18 11:08 33.668099 -117.871011 221 59ft 0kts
04-Dec-18 11:09 33.668099 -117.871011 221 59ft 0kts
04-Dec-18 11:10 33.668099 -117.871011 221 59ft 0kts
04-Dec-18 11:11 33.668099 -117.871011 221 59ft 0kts
04-Dec-18 11:12 33.668099 -117.871011 221 59ft 0kts
04-Dec-18 11:13 33.668310 -117.871705 4 59ft 9kts
04-Dec-18 11:14 33.672683 -117.867674 32 59ft 23kts
04-Dec-18 11:15 33.678946 -117.863430 29 59ft 25kts
04-Dec-18 11:16 33.680654 -117.863219 301 59ft 0kts
04-Dec-18 11:17 33.680654 -117.863219 301 59ft 0kts
04-Dec-18 11:18 33.681319 -117.865244 212 59ft 0kts
04-Dec-18 11:19 33.656201 -117.879147 182 1515ft 173kts
04-Dec-18 11:20 33.606743 -117.881212 182 3426ft 205kts
04-Dec-18 11:21 33.551915 -117.888427 186 4221ft 197kts
04-Dec-18 11:22 33.502124 -117.899641 186 5208ft 179kts
04-Dec-18 11:23 33.453809 -117.911033 187 6273ft 172kts
04-Dec-18 11:24 33.408751 -117.922053 186 6998ft 178kts
04-Dec-18 11:25 33.370721 -117.891439 125 6895ft 189kts
04-Dec-18 11:25 33.347657 -117.849753 123 6044ft 198kts
04-Dec-18 11:27 33.313330 -117.785616 121 5017ft 186kts
04-Dec-18 11:28 33.291401 -117.737130 102 5015ft 155kts
04-Dec-18 11:29 33.281297 -117.682107 101 5049ft 187kts
04-Dec-18 11:30 33.269582 -117.617990 101 5050ft 205kts
04-Dec-18 11:30 33.259126 -117.561421 101 5049ft 211kts
04-Dec-18 11:32 33.242580 -117.480974 101 5052ft 223kts
04-Dec-18 11:32 33.229627 -117.423226 102 5051ft 210kts
04-Dec-18 11:34 33.213463 -117.347591 102 5049ft 204kts
04-Dec-18 11:34 33.202248 -117.293862 102 5046ft 203kts
04-Dec-18 11:35 33.188634 -117.228615 102 5045ft 202kts
04-Dec-18 11:36 33.175048 -117.163355 102 5044ft 205kts
04-Dec-18 11:37 33.147096 -117.103080 130 4356ft 221kts
04-Dec-18 11:38 33.112498 -117.047414 102 3549ft 188kts
04-Dec-18 11:39 33.100404 -116.992601 101 3549ft 184kts
04-Dec-18 11:40 33.118473 -116.955231 323 3570ft 190kts
04-Dec-18 11:41 33.133516 -117.017646 282 3548ft 201kts
04-Dec-18 11:42 33.143991 -117.080330 282 3545ft 183kts
04-Dec-18 11:43 33.146516 -117.139030 270 2721ft 181kts
04-Dec-18 11:44 33.140459 -117.196810 255 1627ft 163kts
04-Dec-18 11:45 33.134035 -117.244355 257 903ft 124kts
04-Dec-18 11:46 33.128105 -117.280384 259 309ft 38kts
04-Dec-18 11:47 33.127288 -117.282607 189 311ft 0kts
04-Dec-18 11:48 33.126618 -117.282259 127 311ft 3kts

Navigation Log

Ident Type
Flight plan parsing failed, navigation log unavailable